sensor_id;sensor_type;location;lat;lon;timestamp;pressure;altitude;pressure_sealevel;temperature;humidity
77626;BME280;66794;43.764;10.436;2023-05-29T00:01:31;101399.41;;;18.43;100.00
77626;BME280;66794;43.764;10.436;2023-05-29T00:04:17;101397.09;;;18.26;100.00
77626;BME280;66794;43.764;10.436;2023-05-29T00:07:03;101395.22;;;18.33;100.00
77626;BME280;66794;43.764;10.436;2023-05-29T00:09:48;101398.56;;;18.16;100.00
77626;BME280;66794;43.764;10.436;2023-05-29T00:12:34;101395.41;;;18.32;100.00
77626;BME280;66794;43.764;10.436;2023-05-29T00:15:20;101392.25;;;18.35;100.00
77626;BME280;66794;43.764;10.436;2023-05-29T00:18:06;101404.91;;;18.49;100.00
77626;BME280;66794;43.764;10.436;2023-05-29T00:20:52;101402.78;;;18.31;100.00
77626;BME280;66794;43.764;10.436;2023-05-29T00:23:38;101406.16;;;18.53;100.00
77626;BME280;66794;43.764;10.436;2023-05-29T00:26:23;101402.56;;;18.73;100.00
77626;BME280;66794;43.764;10.436;2023-05-29T00:29:09;101401.03;;;18.90;100.00
77626;BME280;66794;43.764;10.436;2023-05-29T00:31:55;101403.41;;;18.53;100.00
77626;BME280;66794;43.764;10.436;2023-05-29T00:34:41;101409.75;;;18.60;100.00
77626;BME280;66794;43.764;10.436;2023-05-29T00:37:27;101403.38;;;18.86;100.00
77626;BME280;66794;43.764;10.436;2023-05-29T00:40:13;101403.75;;;18.97;100.00
77626;BME280;66794;43.764;10.436;2023-05-29T00:42:59;101407.06;;;19.18;100.00
77626;BME280;66794;43.764;10.436;2023-05-29T00:45:44;101405.94;;;19.39;100.00
77626;BME280;66794;43.764;10.436;2023-05-29T00:48:30;101402.28;;;19.52;100.00
77626;BME280;66794;43.764;10.436;2023-05-29T00:51:16;101388.09;;;19.55;100.00
77626;BME280;66794;43.764;10.436;2023-05-29T00:54:01;101394.16;;;19.70;100.00
77626;BME280;66794;43.764;10.436;2023-05-29T00:56:47;101386.16;;;19.69;100.00
77626;BME280;66794;43.764;10.436;2023-05-29T00:59:33;101393.50;;;19.75;100.00
77626;BME280;66794;43.764;10.436;2023-05-29T01:02:19;101385.69;;;19.72;100.00
77626;BME280;66794;43.764;10.436;2023-05-29T01:05:06;101390.75;;;19.75;100.00
77626;BME280;66794;43.764;10.436;2023-05-29T01:07:51;101398.03;;;19.63;100.00
77626;BME280;66794;43.764;10.436;2023-05-29T01:10:37;101395.25;;;19.56;100.00
77626;BME280;66794;43.764;10.436;2023-05-29T01:13:23;101386.59;;;19.66;100.00
77626;BME280;66794;43.764;10.436;2023-05-29T01:22:25;101382.38;;;19.57;100.00
77626;BME280;66794;43.764;10.436;2023-05-29T01:25:23;101376.19;;;19.75;100.00
77626;BME280;66794;43.764;10.436;2023-05-29T01:28:09;101371.69;;;19.80;100.00
77626;BME280;66794;43.764;10.436;2023-05-29T01:30:57;101373.09;;;19.89;100.00
77626;BME280;66794;43.764;10.436;2023-05-29T01:33:51;101375.06;;;18.99;100.00
77626;BME280;66794;43.764;10.436;2023-05-29T01:36:37;101369.47;;;19.19;100.00
77626;BME280;66794;43.764;10.436;2023-05-29T01:39:23;101378.38;;;19.08;100.00
77626;BME280;66794;43.764;10.436;2023-05-29T01:42:09;101379.22;;;19.15;100.00
77626;BME280;66794;43.764;10.436;2023-05-29T01:44:55;101375.03;;;19.06;100.00
77626;BME280;66794;43.764;10.436;2023-05-29T01:47:42;101364.47;;;19.03;100.00
77626;BME280;66794;43.764;10.436;2023-05-29T01:50:28;101358.66;;;18.73;100.00
77626;BME280;66794;43.764;10.436;2023-05-29T01:53:14;101368.34;;;18.88;100.00
77626;BME280;66794;43.764;10.436;2023-05-29T01:56:00;101365.41;;;18.63;100.00
77626;BME280;66794;43.764;10.436;2023-05-29T01:58:46;101372.59;;;18.58;100.00
77626;BME280;66794;43.764;10.436;2023-05-29T02:01:32;101366.75;;;18.01;100.00
77626;BME280;66794;43.764;10.436;2023-05-29T02:04:18;101365.03;;;18.20;100.00
77626;BME280;66794;43.764;10.436;2023-05-29T02:07:05;101364.41;;;17.98;100.00
77626;BME280;66794;43.764;10.436;2023-05-29T02:09:52;101368.22;;;18.10;100.00
77626;BME280;66794;43.764;10.436;2023-05-29T02:12:37;101365.88;;;18.21;100.00
77626;BME280;66794;43.764;10.436;2023-05-29T02:15:23;101372.44;;;18.39;100.00
77626;BME280;66794;43.764;10.436;2023-05-29T02:18:10;101371.16;;;18.35;100.00
77626;BME280;66794;43.764;10.436;2023-05-29T02:20:57;101370.94;;;18.30;100.00
77626;BME280;66794;43.764;10.436;2023-05-29T02:23:43;101373.47;;;18.45;100.00
77626;BME280;66794;43.764;10.436;2023-05-29T02:26:28;101378.13;;;18.38;100.00
77626;BME280;66794;43.764;10.436;2023-05-29T02:29:14;101380.22;;;18.29;100.00
77626;BME280;66794;43.764;10.436;2023-05-29T02:32:00;101381.06;;;18.30;100.00
77626;BME280;66794;43.764;10.436;2023-05-29T02:34:45;101387.41;;;18.17;100.00
77626;BME280;66794;43.764;10.436;2023-05-29T02:37:31;101384.22;;;17.87;100.00
77626;BME280;66794;43.764;10.436;2023-05-29T02:40:17;101381.50;;;18.00;100.00
77626;BME280;66794;43.764;10.436;2023-05-29T02:43:04;101394.59;;;18.11;100.00
77626;BME280;66794;43.764;10.436;2023-05-29T02:45:50;101388.25;;;18.11;100.00
77626;BME280;66794;43.764;10.436;2023-05-29T02:48:36;101390.28;;;17.69;100.00
77626;BME280;66794;43.764;10.436;2023-05-29T02:51:21;101378.97;;;17.79;100.00
77626;BME280;66794;43.764;10.436;2023-05-29T02:54:07;101383.50;;;17.58;100.00
77626;BME280;66794;43.764;10.436;2023-05-29T02:56:52;101380.41;;;17.75;100.00
77626;BME280;66794;43.764;10.436;2023-05-29T02:59:38;101378.25;;;17.57;100.00
77626;BME280;66794;43.764;10.436;2023-05-29T03:02:24;101371.84;;;17.30;100.00
77626;BME280;66794;43.764;10.436;2023-05-29T03:05:09;101375.88;;;17.41;100.00
77626;BME280;66794;43.764;10.436;2023-05-29T03:07:55;101377.19;;;17.51;100.00
77626;BME280;66794;43.764;10.436;2023-05-29T03:10:41;101380.84;;;17.17;100.00
77626;BME280;66794;43.764;10.436;2023-05-29T03:13:27;101387.81;;;17.20;100.00
77626;BME280;66794;43.764;10.436;2023-05-29T03:16:12;101387.13;;;17.11;100.00
77626;BME280;66794;43.764;10.436;2023-05-29T03:18:58;101369.50;;;17.27;100.00
77626;BME280;66794;43.764;10.436;2023-05-29T03:21:44;101377.03;;;17.12;100.00
77626;BME280;66794;43.764;10.436;2023-05-29T03:24:30;101380.16;;;17.02;100.00
77626;BME280;66794;43.764;10.436;2023-05-29T03:27:16;101379.81;;;17.18;100.00
77626;BME280;66794;43.764;10.436;2023-05-29T03:30:01;101385.31;;;17.31;100.00
77626;BME280;66794;43.764;10.436;2023-05-29T03:32:48;101384.00;;;16.73;100.00
77626;BME280;66794;43.764;10.436;2023-05-29T03:35:33;101382.91;;;17.02;100.00
77626;BME280;66794;43.764;10.436;2023-05-29T03:38:19;101390.13;;;16.75;100.00
77626;BME280;66794;43.764;10.436;2023-05-29T03:41:05;101394.78;;;16.81;100.00
77626;BME280;66794;43.764;10.436;2023-05-29T03:43:50;101396.16;;;16.70;100.00
77626;BME280;66794;43.764;10.436;2023-05-29T03:46:36;101386.47;;;17.02;100.00
77626;BME280;66794;43.764;10.436;2023-05-29T03:49:22;101386.34;;;16.76;100.00
77626;BME280;66794;43.764;10.436;2023-05-29T03:52:07;101386.59;;;16.81;100.00
77626;BME280;66794;43.764;10.436;2023-05-29T03:54:53;101389.97;;;16.90;100.00
77626;BME280;66794;43.764;10.436;2023-05-29T03:57:39;101396.38;;;17.03;100.00
77626;BME280;66794;43.764;10.436;2023-05-29T04:00:25;101404.09;;;16.59;100.00
77626;BME280;66794;43.764;10.436;2023-05-29T04:03:11;101403.69;;;16.68;100.00
77626;BME280;66794;43.764;10.436;2023-05-29T04:05:57;101409.34;;;16.60;100.00
77626;BME280;66794;43.764;10.436;2023-05-29T04:08:42;101403.97;;;16.45;100.00
77626;BME280;66794;43.764;10.436;2023-05-29T04:11:28;101408.88;;;16.56;100.00
77626;BME280;66794;43.764;10.436;2023-05-29T04:14:13;101414.59;;;16.62;100.00
77626;BME280;66794;43.764;10.436;2023-05-29T04:16:59;101416.59;;;16.74;100.00
77626;BME280;66794;43.764;10.436;2023-05-29T04:19:45;101408.28;;;16.61;100.00
77626;BME280;66794;43.764;10.436;2023-05-29T04:22:30;101414.56;;;16.55;100.00
77626;BME280;66794;43.764;10.436;2023-05-29T04:25:16;101412.09;;;16.60;100.00
77626;BME280;66794;43.764;10.436;2023-05-29T04:28:03;101411.06;;;16.68;100.00
77626;BME280;66794;43.764;10.436;2023-05-29T04:30:49;101415.50;;;16.69;100.00
77626;BME280;66794;43.764;10.436;2023-05-29T04:33:34;101417.75;;;16.59;100.00
77626;BME280;66794;43.764;10.436;2023-05-29T04:36:22;101425.03;;;16.51;100.00
77626;BME280;66794;43.764;10.436;2023-05-29T04:39:10;101387.28;;;16.34;100.00
77626;BME280;66794;43.764;10.436;2023-05-29T04:41:56;101427.44;;;16.61;100.00
77626;BME280;66794;43.764;10.436;2023-05-29T04:44:44;101430.75;;;16.56;100.00
77626;BME280;66794;43.764;10.436;2023-05-29T04:47:29;101436.25;;;17.19;100.00
77626;BME280;66794;43.764;10.436;2023-05-29T04:50:17;101438.88;;;16.99;100.00
77626;BME280;66794;43.764;10.436;2023-05-29T04:53:03;101437.22;;;17.05;100.00
77626;BME280;66794;43.764;10.436;2023-05-29T04:55:49;101429.59;;;17.00;100.00
77626;BME280;66794;43.764;10.436;2023-05-29T04:58:35;101445.56;;;17.38;100.00
77626;BME280;66794;43.764;10.436;2023-05-29T05:01:20;101435.75;;;17.57;100.00
77626;BME280;66794;43.764;10.436;2023-05-29T05:04:06;101437.78;;;17.96;100.00
77626;BME280;66794;43.764;10.436;2023-05-29T05:06:51;101443.03;;;17.84;100.00
77626;BME280;66794;43.764;10.436;2023-05-29T05:09:37;101449.59;;;18.03;100.00
77626;BME280;66794;43.764;10.436;2023-05-29T05:12:23;101447.72;;;18.17;100.00
77626;BME280;66794;43.764;10.436;2023-05-29T05:15:08;101448.97;;;18.81;100.00
77626;BME280;66794;43.764;10.436;2023-05-29T05:17:54;101446.16;;;19.21;100.00
77626;BME280;66794;43.764;10.436;2023-05-29T05:20:40;101439.50;;;19.48;100.00
77626;BME280;66794;43.764;10.436;2023-05-29T05:23:26;101427.31;;;19.76;100.00
77626;BME280;66794;43.764;10.436;2023-05-29T05:26:11;101430.34;;;19.99;100.00
77626;BME280;66794;43.764;10.436;2023-05-29T05:28:57;101433.00;;;20.12;100.00
77626;BME280;66794;43.764;10.436;2023-05-29T05:31:46;101439.06;;;20.21;100.00
77626;BME280;66794;43.764;10.436;2023-05-29T05:34:32;101428.13;;;20.14;100.00
77626;BME280;66794;43.764;10.436;2023-05-29T05:37:17;101426.13;;;20.28;100.00
77626;BME280;66794;43.764;10.436;2023-05-29T05:40:04;101431.97;;;20.63;100.00
77626;BME280;66794;43.764;10.436;2023-05-29T05:42:51;101435.56;;;20.64;100.00
77626;BME280;66794;43.764;10.436;2023-05-29T05:45:37;101421.97;;;20.69;100.00
77626;BME280;66794;43.764;10.436;2023-05-29T05:48:27;101428.03;;;20.78;100.00
77626;BME280;66794;43.764;10.436;2023-05-29T05:51:12;101427.47;;;20.87;100.00
77626;BME280;66794;43.764;10.436;2023-05-29T05:53:58;101424.44;;;20.95;100.00
77626;BME280;66794;43.764;10.436;2023-05-29T05:56:23;101431.94;;;21.07;100.00
77626;BME280;66794;43.764;10.436;2023-05-29T05:58:49;101431.25;;;21.11;100.00
77626;BME280;66794;43.764;10.436;2023-05-29T06:01:15;101430.56;;;21.16;100.00
77626;BME280;66794;43.764;10.436;2023-05-29T06:03:40;101392.94;;;21.10;100.00
77626;BME280;66794;43.764;10.436;2023-05-29T06:06:24;101429.50;;;21.35;100.00
77626;BME280;66794;43.764;10.436;2023-05-29T06:09:10;101429.09;;;21.50;100.00
77626;BME280;66794;43.764;10.436;2023-05-29T06:11:56;101424.47;;;21.62;100.00
77626;BME280;66794;43.764;10.436;2023-05-29T06:14:42;101427.81;;;21.83;100.00
77626;BME280;66794;43.764;10.436;2023-05-29T06:17:27;101432.84;;;21.86;100.00
77626;BME280;66794;43.764;10.436;2023-05-29T06:20:13;101424.09;;;21.89;100.00
77626;BME280;66794;43.764;10.436;2023-05-29T06:22:59;101420.06;;;22.03;100.00
77626;BME280;66794;43.764;10.436;2023-05-29T06:25:44;101423.66;;;21.92;100.00
77626;BME280;66794;43.764;10.436;2023-05-29T06:28:30;101424.84;;;21.96;100.00
77626;BME280;66794;43.764;10.436;2023-05-29T06:31:16;101416.22;;;22.04;100.00
77626;BME280;66794;43.764;10.436;2023-05-29T06:34:01;101422.53;;;22.23;100.00
77626;BME280;66794;43.764;10.436;2023-05-29T06:36:47;101424.00;;;22.49;100.00
77626;BME280;66794;43.764;10.436;2023-05-29T06:39:33;101419.69;;;22.53;100.00
77626;BME280;66794;43.764;10.436;2023-05-29T06:42:18;101419.09;;;22.74;100.00
77626;BME280;66794;43.764;10.436;2023-05-29T06:45:04;101424.00;;;22.72;100.00
77626;BME280;66794;43.764;10.436;2023-05-29T06:47:50;101419.22;;;22.79;100.00
77626;BME280;66794;43.764;10.436;2023-05-29T06:50:35;101425.94;;;22.83;100.00
77626;BME280;66794;43.764;10.436;2023-05-29T06:53:21;101426.28;;;22.87;100.00
77626;BME280;66794;43.764;10.436;2023-05-29T06:56:07;101424.03;;;22.96;100.00
77626;BME280;66794;43.764;10.436;2023-05-29T06:58:55;101424.16;;;23.01;100.00
77626;BME280;66794;43.764;10.436;2023-05-29T07:01:41;101425.94;;;23.07;100.00
77626;BME280;66794;43.764;10.436;2023-05-29T07:04:26;101422.41;;;23.23;100.00
77626;BME280;66794;43.764;10.436;2023-05-29T07:07:12;101424.78;;;23.31;100.00
77626;BME280;66794;43.764;10.436;2023-05-29T07:09:58;101427.59;;;23.48;100.00
77626;BME280;66794;43.764;10.436;2023-05-29T07:12:43;101421.97;;;23.55;100.00
77626;BME280;66794;43.764;10.436;2023-05-29T07:15:29;101417.59;;;23.59;100.00
77626;BME280;66794;43.764;10.436;2023-05-29T07:18:15;101429.50;;;23.71;100.00
77626;BME280;66794;43.764;10.436;2023-05-29T07:21:00;101422.41;;;23.92;100.00
77626;BME280;66794;43.764;10.436;2023-05-29T07:23:46;101428.72;;;23.76;100.00
77626;BME280;66794;43.764;10.436;2023-05-29T07:26:32;101428.09;;;23.85;100.00
77626;BME280;66794;43.764;10.436;2023-05-29T07:29:18;101425.13;;;24.04;100.00
77626;BME280;66794;43.764;10.436;2023-05-29T07:32:06;101428.38;;;24.18;100.00
77626;BME280;66794;43.764;10.436;2023-05-29T07:34:51;101424.88;;;24.22;100.00
77626;BME280;66794;43.764;10.436;2023-05-29T07:37:37;101433.25;;;24.10;100.00
77626;BME280;66794;43.764;10.436;2023-05-29T07:40:23;101430.75;;;24.09;100.00
77626;BME280;66794;43.764;10.436;2023-05-29T07:43:09;101431.75;;;24.20;100.00
77626;BME280;66794;43.764;10.436;2023-05-29T07:45:54;101437.41;;;24.42;100.00
77626;BME280;66794;43.764;10.436;2023-05-29T07:48:40;101433.03;;;24.46;100.00
77626;BME280;66794;43.764;10.436;2023-05-29T07:51:26;101425.34;;;24.48;100.00
77626;BME280;66794;43.764;10.436;2023-05-29T07:54:11;101430.34;;;24.67;100.00
77626;BME280;66794;43.764;10.436;2023-05-29T07:56:57;101427.91;;;24.71;100.00
77626;BME280;66794;43.764;10.436;2023-05-29T07:59:43;101426.22;;;24.70;100.00
77626;BME280;66794;43.764;10.436;2023-05-29T08:02:28;101426.78;;;24.89;100.00
77626;BME280;66794;43.764;10.436;2023-05-29T08:05:14;101422.59;;;24.86;100.00
77626;BME280;66794;43.764;10.436;2023-05-29T08:08:00;101430.81;;;24.81;98.29
77626;BME280;66794;43.764;10.436;2023-05-29T08:10:46;101423.03;;;25.00;100.00
77626;BME280;66794;43.764;10.436;2023-05-29T08:13:31;101430.59;;;25.05;100.00
77626;BME280;66794;43.764;10.436;2023-05-29T08:16:17;101423.22;;;25.32;100.00
77626;BME280;66794;43.764;10.436;2023-05-29T08:19:03;101422.66;;;25.08;100.00
77626;BME280;66794;43.764;10.436;2023-05-29T08:21:49;101421.75;;;25.25;100.00
77626;BME280;66794;43.764;10.436;2023-05-29T08:24:35;101424.13;;;25.16;100.00
77626;BME280;66794;43.764;10.436;2023-05-29T08:27:20;101416.41;;;25.40;100.00
77626;BME280;66794;43.764;10.436;2023-05-29T08:30:06;101420.78;;;25.36;99.99
77626;BME280;66794;43.764;10.436;2023-05-29T08:32:52;101423.06;;;25.66;100.00
77626;BME280;66794;43.764;10.436;2023-05-29T08:35:37;101414.94;;;25.81;100.00
77626;BME280;66794;43.764;10.436;2023-05-29T08:38:23;101418.59;;;25.87;100.00
77626;BME280;66794;43.764;10.436;2023-05-29T08:41:11;101425.03;;;25.92;98.91
77626;BME280;66794;43.764;10.436;2023-05-29T08:44:00;101425.50;;;26.11;96.08
77626;BME280;66794;43.764;10.436;2023-05-29T08:46:53;101422.97;;;25.78;98.37
77626;BME280;66794;43.764;10.436;2023-05-29T08:49:40;101424.34;;;26.07;95.16
77626;BME280;66794;43.764;10.436;2023-05-29T08:52:27;101424.28;;;26.02;99.73
77626;BME280;66794;43.764;10.436;2023-05-29T08:55:15;101432.06;;;26.32;100.00
77626;BME280;66794;43.764;10.436;2023-05-29T08:58:00;101429.94;;;26.12;100.00
77626;BME280;66794;43.764;10.436;2023-05-29T09:00:47;101433.50;;;26.08;100.00
77626;BME280;66794;43.764;10.436;2023-05-29T09:03:33;101427.81;;;26.52;98.86
77626;BME280;66794;43.764;10.436;2023-05-29T09:06:19;101437.44;;;26.12;96.24
77626;BME280;66794;43.764;10.436;2023-05-29T09:09:06;101430.84;;;26.18;97.83
77626;BME280;66794;43.764;10.436;2023-05-29T09:11:51;101436.47;;;26.28;97.95
77626;BME280;66794;43.764;10.436;2023-05-29T09:14:39;101440.97;;;26.34;97.38
77626;BME280;66794;43.764;10.436;2023-05-29T09:17:30;101436.25;;;26.35;94.72
77626;BME280;66794;43.764;10.436;2023-05-29T09:20:16;101426.75;;;26.31;93.29
77626;BME280;66794;43.764;10.436;2023-05-29T09:23:07;101431.69;;;26.93;100.00
77626;BME280;66794;43.764;10.436;2023-05-29T09:25:54;101431.34;;;26.84;91.61
77626;BME280;66794;43.764;10.436;2023-05-29T09:28:39;101430.53;;;26.46;93.95
77626;BME280;66794;43.764;10.436;2023-05-29T09:31:25;101430.41;;;26.36;93.53
77626;BME280;66794;43.764;10.436;2023-05-29T09:34:11;101431.25;;;26.69;94.72
77626;BME280;66794;43.764;10.436;2023-05-29T09:37:03;101429.47;;;26.53;95.69
77626;BME280;66794;43.764;10.436;2023-05-29T09:39:53;101422.56;;;26.97;94.55
77626;BME280;66794;43.764;10.436;2023-05-29T09:42:39;101431.03;;;26.76;91.61
77626;BME280;66794;43.764;10.436;2023-05-29T09:45:24;101428.84;;;26.83;87.57
77626;BME280;66794;43.764;10.436;2023-05-29T09:48:12;101428.56;;;26.84;94.98
77626;BME280;66794;43.764;10.436;2023-05-29T09:50:58;101425.97;;;27.10;91.31
77626;BME280;66794;43.764;10.436;2023-05-29T09:53:43;101424.31;;;27.82;82.70
77626;BME280;66794;43.764;10.436;2023-05-29T09:56:29;101427.38;;;27.90;78.34
77626;BME280;66794;43.764;10.436;2023-05-29T09:59:15;101430.19;;;28.16;73.08
77626;BME280;66794;43.764;10.436;2023-05-29T10:02:03;101419.31;;;28.09;69.04
77626;BME280;66794;43.764;10.436;2023-05-29T10:04:49;101426.25;;;27.81;67.30
77626;BME280;66794;43.764;10.436;2023-05-29T10:07:36;101425.00;;;27.41;72.29
77626;BME280;66794;43.764;10.436;2023-05-29T10:10:23;101423.78;;;27.17;72.82
77626;BME280;66794;43.764;10.436;2023-05-29T10:13:12;101422.25;;;26.94;72.56
77626;BME280;66794;43.764;10.436;2023-05-29T10:15:58;101422.97;;;27.21;69.48
77626;BME280;66794;43.764;10.436;2023-05-29T10:18:55;101416.00;;;28.38;65.14
77626;BME280;66794;43.764;10.436;2023-05-29T10:21:41;101409.84;;;28.25;57.01
77626;BME280;66794;43.764;10.436;2023-05-29T10:24:29;101410.56;;;27.55;68.49
77626;BME280;66794;43.764;10.436;2023-05-29T10:27:16;101406.72;;;26.98;75.06
77626;BME280;66794;43.764;10.436;2023-05-29T10:30:04;101398.47;;;28.07;72.74
77626;BME280;66794;43.764;10.436;2023-05-29T10:35:47;101414.00;;;27.87;73.46
77626;BME280;66794;43.764;10.436;2023-05-29T10:38:33;101407.19;;;27.42;68.86
77626;BME280;66794;43.764;10.436;2023-05-29T10:47:26;101404.19;;;27.01;69.33
77626;BME280;66794;43.764;10.436;2023-05-29T10:50:12;101399.66;;;27.33;73.91
77626;BME280;66794;43.764;10.436;2023-05-29T10:52:57;101394.84;;;28.11;65.26
77626;BME280;66794;43.764;10.436;2023-05-29T10:55:44;101403.16;;;27.75;55.40
77626;BME280;66794;43.764;10.436;2023-05-29T10:58:30;101407.78;;;26.92;70.11
77626;BME280;66794;43.764;10.436;2023-05-29T11:01:16;101404.50;;;26.58;77.37
77626;BME280;66794;43.764;10.436;2023-05-29T11:07:01;101408.88;;;26.43;74.93
77626;BME280;66794;43.764;10.436;2023-05-29T11:09:51;101417.75;;;26.83;74.37
77626;BME280;66794;43.764;10.436;2023-05-29T11:12:38;101414.03;;;27.14;80.35
77626;BME280;66794;43.764;10.436;2023-05-29T11:15:40;101406.41;;;26.52;77.29
77626;BME280;66794;43.764;10.436;2023-05-29T11:18:26;101407.41;;;26.41;75.49
77626;BME280;66794;43.764;10.436;2023-05-29T11:21:15;101408.44;;;25.98;77.70
77626;BME280;66794;43.764;10.436;2023-05-29T11:24:07;101417.19;;;25.84;76.65
77626;BME280;66794;43.764;10.436;2023-05-29T11:26:54;101399.78;;;25.67;72.58
77626;BME280;66794;43.764;10.436;2023-05-29T11:29:40;101407.78;;;26.50;66.96
77626;BME280;66794;43.764;10.436;2023-05-29T11:32:25;101411.00;;;26.73;65.34
77626;BME280;66794;43.764;10.436;2023-05-29T11:35:13;101398.88;;;26.42;63.72
77626;BME280;66794;43.764;10.436;2023-05-29T11:37:59;101393.66;;;26.98;63.50
77626;BME280;66794;43.764;10.436;2023-05-29T11:40:46;101395.72;;;27.23;61.04
77626;BME280;66794;43.764;10.436;2023-05-29T11:43:31;101395.13;;;26.69;59.19
77626;BME280;66794;43.764;10.436;2023-05-29T11:46:18;101396.84;;;26.38;65.18
77626;BME280;66794;43.764;10.436;2023-05-29T11:49:04;101398.28;;;26.83;58.20
77626;BME280;66794;43.764;10.436;2023-05-29T11:51:50;101393.72;;;26.29;63.48
77626;BME280;66794;43.764;10.436;2023-05-29T11:54:36;101395.41;;;26.67;63.78
77626;BME280;66794;43.764;10.436;2023-05-29T11:57:22;101390.75;;;26.78;63.22
77626;BME280;66794;43.764;10.436;2023-05-29T12:00:11;101391.63;;;26.89;67.97
77626;BME280;66794;43.764;10.436;2023-05-29T12:02:58;101393.03;;;26.44;68.00
77626;BME280;66794;43.764;10.436;2023-05-29T12:05:45;101395.84;;;26.91;65.51
77626;BME280;66794;43.764;10.436;2023-05-29T12:08:31;101388.44;;;26.60;61.93
77626;BME280;66794;43.764;10.436;2023-05-29T12:11:22;101388.84;;;26.41;68.75
77626;BME280;66794;43.764;10.436;2023-05-29T12:14:08;101350.28;;;26.13;67.77
77626;BME280;66794;43.764;10.436;2023-05-29T12:16:53;101387.75;;;26.10;68.66
77626;BME280;66794;43.764;10.436;2023-05-29T12:19:39;101385.19;;;27.31;68.12
77626;BME280;66794;43.764;10.436;2023-05-29T12:22:37;101379.50;;;27.88;65.63
77626;BME280;66794;43.764;10.436;2023-05-29T12:25:23;101378.84;;;27.56;63.34
77626;BME280;66794;43.764;10.436;2023-05-29T12:28:09;101371.16;;;27.93;67.02
77626;BME280;66794;43.764;10.436;2023-05-29T12:31:01;101372.69;;;27.33;66.91
77626;BME280;66794;43.764;10.436;2023-05-29T12:33:46;101376.31;;;26.39;66.05
77626;BME280;66794;43.764;10.436;2023-05-29T12:36:32;101378.94;;;27.03;68.26
77626;BME280;66794;43.764;10.436;2023-05-29T12:39:18;101373.84;;;26.90;81.65
77626;BME280;66794;43.764;10.436;2023-05-29T12:42:03;101384.19;;;26.99;79.76
77626;BME280;66794;43.764;10.436;2023-05-29T12:44:49;101377.66;;;26.73;89.27
77626;BME280;66794;43.764;10.436;2023-05-29T12:47:35;101386.25;;;27.14;83.47
77626;BME280;66794;43.764;10.436;2023-05-29T12:50:21;101372.50;;;26.92;75.87
77626;BME280;66794;43.764;10.436;2023-05-29T12:53:08;101365.97;;;27.19;71.52
77626;BME280;66794;43.764;10.436;2023-05-29T12:55:54;101367.06;;;27.23;65.24
77626;BME280;66794;43.764;10.436;2023-05-29T12:58:42;101362.97;;;27.51;67.47
77626;BME280;66794;43.764;10.436;2023-05-29T13:01:28;101359.47;;;26.98;71.44
77626;BME280;66794;43.764;10.436;2023-05-29T13:04:14;101345.78;;;28.61;61.18
77626;BME280;66794;43.764;10.436;2023-05-29T13:07:01;101349.88;;;28.84;58.20
77626;BME280;66794;43.764;10.436;2023-05-29T13:09:46;101346.50;;;29.96;58.09
77626;BME280;66794;43.764;10.436;2023-05-29T13:12:32;101350.41;;;28.96;54.60
77626;BME280;66794;43.764;10.436;2023-05-29T13:15:18;101349.47;;;28.06;57.95
77626;BME280;66794;43.764;10.436;2023-05-29T13:18:03;101344.88;;;28.76;57.71
77626;BME280;66794;43.764;10.436;2023-05-29T13:20:49;101348.78;;;27.42;57.75
77626;BME280;66794;43.764;10.436;2023-05-29T13:23:35;101354.66;;;27.66;58.02
77626;BME280;66794;43.764;10.436;2023-05-29T13:26:20;101342.22;;;27.79;55.79
77626;BME280;66794;43.764;10.436;2023-05-29T13:29:07;101353.59;;;27.72;53.28
77626;BME280;66794;43.764;10.436;2023-05-29T13:31:52;101345.53;;;27.81;54.75
77626;BME280;66794;43.764;10.436;2023-05-29T13:34:38;101341.34;;;27.99;57.76
77626;BME280;66794;43.764;10.436;2023-05-29T13:37:24;101346.78;;;27.27;64.21
77626;BME280;66794;43.764;10.436;2023-05-29T13:40:10;101345.03;;;27.06;66.86
77626;BME280;66794;43.764;10.436;2023-05-29T13:42:55;101351.44;;;26.54;68.97
77626;BME280;66794;43.764;10.436;2023-05-29T13:45:42;101349.34;;;27.44;59.29
77626;BME280;66794;43.764;10.436;2023-05-29T13:48:27;101340.94;;;27.14;57.08
77626;BME280;66794;43.764;10.436;2023-05-29T13:51:13;101339.28;;;26.65;55.13
77626;BME280;66794;43.764;10.436;2023-05-29T13:53:59;101337.31;;;26.61;50.62
77626;BME280;66794;43.764;10.436;2023-05-29T13:56:45;101343.75;;;27.39;54.78
77626;BME280;66794;43.764;10.436;2023-05-29T13:59:31;101330.19;;;27.63;54.10
77626;BME280;66794;43.764;10.436;2023-05-29T14:02:16;101331.34;;;28.03;54.33
77626;BME280;66794;43.764;10.436;2023-05-29T14:05:02;101334.97;;;28.03;52.51
77626;BME280;66794;43.764;10.436;2023-05-29T14:07:48;101334.66;;;28.15;48.87
77626;BME280;66794;43.764;10.436;2023-05-29T14:10:34;101322.16;;;28.18;49.05
77626;BME280;66794;43.764;10.436;2023-05-29T14:13:20;101326.88;;;28.27;48.31
77626;BME280;66794;43.764;10.436;2023-05-29T14:16:05;101324.84;;;27.36;53.67
77626;BME280;66794;43.764;10.436;2023-05-29T14:18:51;101320.22;;;27.93;51.44
77626;BME280;66794;43.764;10.436;2023-05-29T14:21:37;101323.69;;;27.22;54.40
77626;BME280;66794;43.764;10.436;2023-05-29T14:24:22;101320.19;;;27.83;53.89
77626;BME280;66794;43.764;10.436;2023-05-29T14:27:09;101325.78;;;27.98;54.68